Map

Track Data

SID SEASON NUMBER BASIN SUBBASIN NAME ISO_TIME NATURE LAT LON WMO_WIND WMO_PRES WMO_AGENCY TRACK_TYPE DIST2LAND LANDFALL IFLAG USA_AGENCY USA_ATCF_ID USA_LAT USA_LON USA_RECORD USA_STATUS USA_WIND USA_PRES USA_SSHS USA_R34_NE USA_R34_SE USA_R34_SW USA_R34_NW USA_R50_NE USA_R50_SE USA_R50_SW USA_R50_NW USA_R64_NE USA_R64_SE USA_R64_SW USA_R64_NW USA_POCI USA_ROCI USA_RMW USA_EYE TOKYO_LAT TOKYO_LON TOKYO_GRADE TOKYO_WIND TOKYO_PRES TOKYO_R50_DIR TOKYO_R50_LONG TOKYO_R50_SHORT TOKYO_R30_DIR TOKYO_R30_LONG TOKYO_R30_SHORT TOKYO_LAND CMA_LAT CMA_LON CMA_CAT CMA_WIND CMA_PRES HKO_LAT HKO_LON HKO_CAT HKO_WIND HKO_PRES NEWDELHI_LAT NEWDELHI_LON NEWDELHI_GRADE NEWDELHI_WIND NEWDELHI_PRES NEWDELHI_CI NEWDELHI_DP NEWDELHI_POCI REUNION_LAT REUNION_LON REUNION_TYPE REUNION_WIND REUNION_PRES REUNION_TNUM REUNION_CI REUNION_RMW REUNION_R34_NE REUNION_R34_SE REUNION_R34_SW REUNION_R34_NW REUNION_R50_NE REUNION_R50_SE REUNION_R50_SW REUNION_R50_NW REUNION_R64_NE REUNION_R64_SE REUNION_R64_SW REUNION_R64_NW BOM_LAT BOM_LON BOM_TYPE BOM_WIND BOM_PRES BOM_TNUM BOM_CI BOM_RMW BOM_R34_NE BOM_R34_SE BOM_R34_SW BOM_R34_NW BOM_R50_NE BOM_R50_SE BOM_R50_SW BOM_R50_NW BOM_R64_NE BOM_R64_SE BOM_R64_SW BOM_R64_NW BOM_ROCI BOM_POCI BOM_EYE BOM_POS_METHOD BOM_PRES_METHOD NADI_LAT NADI_LON NADI_CAT NADI_WIND NADI_PRES WELLINGTON_LAT WELLINGTON_LON WELLINGTON_WIND WELLINGTON_PRES DS824_LAT DS824_LON DS824_STAGE DS824_WIND DS824_PRES TD9636_LAT TD9636_LON TD9636_STAGE TD9636_WIND TD9636_PRES TD9635_LAT TD9635_LON TD9635_WIND TD9635_PRES TD9635_ROCI NEUMANN_LAT NEUMANN_LON NEUMANN_CLASS NEUMANN_WIND NEUMANN_PRES MLC_LAT MLC_LON MLC_CLASS MLC_WIND MLC_PRES USA_GUST BOM_GUST BOM_GUST_PER REUNION_GUST REUNION_GUST_PER USA_SEAHGT USA_SEARAD_NE USA_SEARAD_SE USA_SEARAD_SW USA_SEARAD_NW STORM_SPEED STORM_DIR
1973029S16185 1973 18 SP MM GLENDA 1973-01-29 00:00:00 TS -15.7000 -175.000 main 334 287 O________OO_O_ jtwc_sh SH191973 -15.7000 -175.000 -1 -15.7000 185.000 TC 35 -15.7000 -175.000 2 -15.7000 -175.000 TC 25 13 94
1973029S16185 1973 18 SP MM GLENDA 1973-01-29 03:00:00 TS -15.7453 -174.349 main 280 253 P________PP_P_ SH191973 -15.7453 -174.353 -1 -15.7453 -174.353 TC 35 -15.7453 -174.339 2 -15.7453 -174.353 TC 25 13 95
1973029S16185 1973 18 SP MM GLENDA 1973-01-29 06:00:00 TS -15.8004 -173.696 main 253 236 O________OP_O_ jtwc_sh SH191973 -15.8000 -173.700 -1 -15.8000 186.300 TC 35 -15.8017 -173.682 2 -15.8000 -173.700 TC 25 13 96
1973029S16185 1973 18 SP MM GLENDA 1973-01-29 09:00:00 TS -15.8786 -173.040 main 238 235 P________PP_P_ SH191973 -15.8774 -173.042 -1 -15.8774 -173.042 TC 35 -15.8822 -173.035 2 -15.8774 -173.042 TC 27 13 99
1973029S16185 1973 18 SP MM GLENDA 1973-01-29 12:00:00 TS -16.0000 -172.400 main 246 246 O________OO_O_ jtwc_sh SH191973 -16.0000 -172.400 -1 -16.0000 187.600 TC 35 -16.0000 -172.400 2 -16.0000 -172.400 TC 30 12 104
1973029S16185 1973 18 SP MM GLENDA 1973-01-29 15:00:00 TS -16.1742 -171.790 main 272 272 P________PP_P_ SH191973 -16.1773 -171.792 -1 -16.1773 -171.792 TC 35 -16.1650 -171.781 2 -16.1773 -171.792 TC 30 12 109
1973029S16185 1973 18 SP MM GLENDA 1973-01-29 18:00:00 TS -16.3936 -171.194 main 310 310 O________OP_O_ jtwc_sh SH191973 -16.4000 -171.200 -1 -16.4000 188.800 TC 35 -16.3742 -171.177 2 -16.4000 -171.200 TC 30 12 112
1973029S16185 1973 18 SP MM GLENDA 1973-01-29 21:00:00 TS -16.6314 -170.596 main 357 357 P________PP_P_ SH191973 -16.6348 -170.600 -1 -16.6348 -170.600 TC 35 -16.6213 -170.584 2 -16.6348 -170.600 TC 30 13 114
1973029S16185 1973 18 SP MM GLENDA 1973-01-30 00:00:00 TS -16.9000 -170.000 main 419 419 O________OO_O_ jtwc_sh SH191973 -16.9000 -170.000 -1 -16.9000 190.000 TC 35 -16.9000 -170.000 2 -16.9000 -170.000 TC 30 13 116
1973029S16185 1973 18 SP MM GLENDA 1973-01-30 03:00:00 TS -17.1836 -169.396 main 484 484 P________PP_P_ SH191973 -17.1849 -169.392 -1 -17.1849 -169.392 TC 35 -17.1797 -169.405 2 -17.1849 -169.392 TC 30 13 118
1973029S16185 1973 18 SP MM GLENDA 1973-01-30 06:00:00 TS -17.4974 -168.805 main 551 551 O________OP_O_ jtwc_sh SH191973 -17.5000 -168.800 -1 -17.5000 191.200 TC 35 -17.4896 -168.819 2 -17.5000 -168.800 TC 30 13 120
1973029S16185 1973 18 SP MM GLENDA 1973-01-30 09:00:00 TS -17.8336 -168.238 main 619 619 P________PP_P_ SH191973 -17.8348 -168.235 -1 -17.8348 -168.235 TC 35 -17.8297 -168.249 2 -17.8348 -168.235 TC 30 13 124
1973029S16185 1973 18 SP MM GLENDA 1973-01-30 12:00:00 TS -18.2000 -167.700 main 688 688 O________OO_O_ jtwc_sh SH191973 -18.2000 -167.700 -1 -18.2000 192.300 TC 35 -18.2000 -167.700 2 -18.2000 -167.700 TC 30 13 127
1973029S16185 1973 18 SP MM GLENDA 1973-01-30 15:00:00 TS -18.5876 -167.185 main 757 757 P________PP_P_ SH191973 -18.5848 -167.192 -1 -18.5848 -167.192 TC 35 -18.5958 -167.162 2 -18.5848 -167.192 TC 30 13 130
1973029S16185 1973 18 SP MM GLENDA 1973-01-30 18:00:00 TS -19.0049 -166.687 main 826 826 O________OP_O_ jtwc_sh SH191973 -19.0000 -166.700 -1 -19.0000 193.300 TC 35 -19.0195 -166.647 2 -19.0000 -166.700 TC 30 13 132
1973029S16185 1973 18 SP MM GLENDA 1973-01-30 21:00:00 TS -19.4521 -166.184 main 902 902 P________PP_P_ SH191973 -19.4499 -166.192 -1 -19.4499 -166.192 TC 35 -19.4585 -166.159 2 -19.4499 -166.192 TC 32 13 134
1973029S16185 1973 18 SP MM GLENDA 1973-01-31 00:00:00 TS -19.9000 -165.700 main 971 971 O________OO_O_ jtwc_sh SH191973 -19.9000 -165.700 -1 -19.9000 194.300 TC 35 -19.9000 -165.700 2 -19.9000 -165.700 TC 35 12 133
1973029S16185 1973 18 SP MM GLENDA 1973-01-31 03:00:00 TS -20.2991 -165.222 main 1040 1040 P________PP_P_ SH191973 -20.2999 -165.227 -1 -20.2999 -165.227 TC 35 -20.2967 -165.206 2 -20.2999 -165.227 TC 35 12 133
1973029S16185 1973 18 SP MM GLENDA 1973-01-31 06:00:00 TS -20.6994 -164.788 main 1101 1101 O________OP_O_ jtwc_sh SH191973 -20.7000 -164.800 -1 -20.7000 195.200 TC 35 -20.6978 -164.751 2 -20.7000 -164.800 TC 35 11 137
1973029S16185 1973 18 SP MM GLENDA 1973-01-31 09:00:00 TS -21.1212 -164.392 main 1162 1162 P________PP_P_ SH191973 -21.1200 -164.398 -1 -21.1200 -164.398 TC 35 -21.1249 -164.369 2 -21.1200 -164.405 TC 35 11 145
1973029S16185 1973 18 SP MM GLENDA 1973-01-31 12:00:00 TS -21.6000 -164.100 main 1223 1223 O________OO_O_ jtwc_sh SH191973 -21.6000 -164.100 -1 -21.6000 195.900 TC 35 -21.6000 -164.100 2 -21.6000 -164.100 TC 35 12 158
1973029S16185 1973 18 SP MM GLENDA 1973-01-31 15:00:00 TS -22.1896 -163.922 main 1285 1285 P________PP_P_ SH191973 -22.1774 -163.932 -1 -22.1774 -163.932 TC 35 -22.2261 -163.947 2 -22.1774 -163.875 TC 35 12 171
1973029S16185 1973 18 SP MM GLENDA 1973-01-31 18:00:00 TS -22.8223 -163.878 main 1334 1334 O________OP_O_ jtwc_sh SH191973 -22.8000 -163.900 -1 -22.8000 196.100 TC 35 -22.8891 -163.911 2 -22.8000 -163.800 TC 35 13 0
1973029S16185 1973 18 SP MM GLENDA 1973-01-31 21:00:00 TS -23.4681 -163.944 main 1392 1386 P________PP_P_ SH191973 -23.4525 -163.955 -1 -23.4525 -163.955 TC 35 -23.5076 -163.969 2 -23.4600 -163.897 TC 32 12 190
1973029S16185 1973 18 SP MM GLENDA 1973-02-01 00:00:00 TS -24.0000 -164.100 main 1423 1423 O________OO_O_ jtwc_sh SH191973 -24.0000 -164.100 -1 -24.0000 195.900 TC 35 -24.0000 -164.100 2 -24.0000 -164.100 TC 30 9 200
1973029S16185 1973 18 SP MM GLENDA 1973-02-01 03:00:00 TS -24.3174 -164.281 main 1437 1437 P________PP_P_ SH191973 -24.3400 -164.277 -1 -24.3400 -164.277 TC 35 -24.3070 -164.282 2 -24.2825 -164.285 TC 30 6 218
1973029S16185 1973 18 SP MM GLENDA 1973-02-01 06:00:00 TS -24.4645 -164.500 main 1443 1432 O________OP_O_ jtwc_sh SH191973 -24.5000 -164.500 -1 -24.5000 195.500 TC 35 -24.4582 -164.501 2 -24.4000 -164.500 TC 30 5 246
1973029S16185 1973 18 SP MM GLENDA 1973-02-01 09:00:00 TS -24.5076 -164.744 main 1432 1414 P________PP_P_ SH191973 -24.5326 -164.745 -1 -24.5326 -164.745 TC 35 -24.5052 -164.745 2 -24.4601 -164.742 TC 27 5 266
1973029S16185 1973 18 SP MM GLENDA 1973-02-01 12:00:00 TS -24.5000 -165.000 main 1414 O________OO_O_ jtwc_sh SH191973 -24.5000 -165.000 -1 -24.5000 195.000 TC 35 -24.5000 -165.000 2 -24.5000 -165.000 TC 25 5 272

Digital Typhoon Data and Search

About IBTrACS Database

This database is a web-friendly format of International Best Track Archive for Climate Stewardship (IBTrACS), a global best track data archive curated by NOAA dating back to 1842.

Updated: 2021-12-03